sensor_id;sensor_type;location;lat;lon;timestamp;P1;durP1;ratioP1;P2;durP2;ratioP2
9940;SDS011;5009;50.656;7.188;2023-04-25T04:01:45;9.53;;;6.77;;
9940;SDS011;5009;50.656;7.188;2023-04-25T04:04:10;10.87;;;7.17;;
9940;SDS011;5009;50.656;7.188;2023-04-25T04:06:36;10.83;;;6.27;;
9940;SDS011;5009;50.656;7.188;2023-04-25T04:09:02;8.70;;;6.43;;
9940;SDS011;5009;50.656;7.188;2023-04-25T04:11:28;10.00;;;6.47;;
9940;SDS011;5009;50.656;7.188;2023-04-25T04:13:53;14.30;;;6.70;;
9940;SDS011;5009;50.656;7.188;2023-04-25T04:16:19;9.37;;;6.57;;
9940;SDS011;5009;50.656;7.188;2023-04-25T04:18:45;11.57;;;6.80;;
9940;SDS011;5009;50.656;7.188;2023-04-25T04:21:11;12.17;;;7.00;;
9940;SDS011;5009;50.656;7.188;2023-04-25T04:23:36;12.87;;;7.23;;
9940;SDS011;5009;50.656;7.188;2023-04-25T04:26:02;11.27;;;6.93;;
9940;SDS011;5009;50.656;7.188;2023-04-25T04:28:28;10.67;;;6.43;;
9940;SDS011;5009;50.656;7.188;2023-04-25T04:30:53;11.33;;;6.90;;
9940;SDS011;5009;50.656;7.188;2023-04-25T04:33:20;10.57;;;7.33;;
9940;SDS011;5009;50.656;7.188;2023-04-25T04:35:46;12.03;;;6.63;;
9940;SDS011;5009;50.656;7.188;2023-04-25T04:38:12;13.67;;;7.30;;
9940;SDS011;5009;50.656;7.188;2023-04-25T04:40:40;10.60;;;5.80;;
9940;SDS011;5009;50.656;7.188;2023-04-25T04:43:08;15.60;;;7.30;;
9940;SDS011;5009;50.656;7.188;2023-04-25T04:45:35;11.77;;;6.43;;
9940;SDS011;5009;50.656;7.188;2023-04-25T04:48:04;13.77;;;6.93;;
9940;SDS011;5009;50.656;7.188;2023-04-25T04:50:33;17.07;;;6.87;;
9940;SDS011;5009;50.656;7.188;2023-04-25T04:52:59;14.23;;;5.93;;
9940;SDS011;5009;50.656;7.188;2023-04-25T04:55:25;9.33;;;6.40;;
9940;SDS011;5009;50.656;7.188;2023-04-25T04:57:50;13.77;;;7.23;;
9940;SDS011;5009;50.656;7.188;2023-04-25T05:00:16;12.07;;;6.63;;
9940;SDS011;5009;50.656;7.188;2023-04-25T05:02:41;11.93;;;7.17;;
9940;SDS011;5009;50.656;7.188;2023-04-25T05:05:07;11.93;;;6.40;;
9940;SDS011;5009;50.656;7.188;2023-04-25T05:07:33;17.00;;;6.80;;
9940;SDS011;5009;50.656;7.188;2023-04-25T05:09:59;14.67;;;6.77;;
9940;SDS011;5009;50.656;7.188;2023-04-25T05:12:25;16.03;;;7.13;;
9940;SDS011;5009;50.656;7.188;2023-04-25T05:14:50;12.50;;;6.70;;
9940;SDS011;5009;50.656;7.188;2023-04-25T05:17:16;20.03;;;6.30;;
9940;SDS011;5009;50.656;7.188;2023-04-25T05:19:41;14.33;;;6.87;;
9940;SDS011;5009;50.656;7.188;2023-04-25T05:22:07;15.13;;;6.47;;
9940;SDS011;5009;50.656;7.188;2023-04-25T05:24:32;10.57;;;6.33;;
9940;SDS011;5009;50.656;7.188;2023-04-25T05:26:58;16.70;;;6.67;;
9940;SDS011;5009;50.656;7.188;2023-04-25T05:29:23;15.43;;;7.23;;
9940;SDS011;5009;50.656;7.188;2023-04-25T05:31:49;12.47;;;6.20;;
9940;SDS011;5009;50.656;7.188;2023-04-25T05:34:15;12.30;;;5.67;;
9940;SDS011;5009;50.656;7.188;2023-04-25T05:36:41;14.87;;;6.93;;
9940;SDS011;5009;50.656;7.188;2023-04-25T05:39:07;13.37;;;6.60;;
9940;SDS011;5009;50.656;7.188;2023-04-25T05:41:33;18.43;;;7.60;;
9940;SDS011;5009;50.656;7.188;2023-04-25T05:43:59;13.73;;;6.57;;
9940;SDS011;5009;50.656;7.188;2023-04-25T05:46:24;14.23;;;6.43;;
9940;SDS011;5009;50.656;7.188;2023-04-25T05:48:50;11.00;;;6.20;;
9940;SDS011;5009;50.656;7.188;2023-04-25T05:51:16;11.23;;;6.50;;
9940;SDS011;5009;50.656;7.188;2023-04-25T05:53:43;10.90;;;5.77;;
9940;SDS011;5009;50.656;7.188;2023-04-25T05:56:09;9.93;;;5.80;;
9940;SDS011;5009;50.656;7.188;2023-04-25T05:58:34;12.37;;;6.80;;
9940;SDS011;5009;50.656;7.188;2023-04-25T06:01:00;14.07;;;6.93;;
9940;SDS011;5009;50.656;7.188;2023-04-25T06:03:27;13.13;;;6.43;;
9940;SDS011;5009;50.656;7.188;2023-04-25T06:05:53;13.27;;;7.23;;
9940;SDS011;5009;50.656;7.188;2023-04-25T06:08:18;10.83;;;6.70;;
9940;SDS011;5009;50.656;7.188;2023-04-25T06:10:44;11.60;;;6.70;;
9940;SDS011;5009;50.656;7.188;2023-04-25T06:13:10;13.03;;;6.97;;
9940;SDS011;5009;50.656;7.188;2023-04-25T06:15:35;14.80;;;7.60;;
9940;SDS011;5009;50.656;7.188;2023-04-25T06:18:01;13.30;;;6.73;;
9940;SDS011;5009;50.656;7.188;2023-04-25T06:20:26;16.23;;;7.50;;
9940;SDS011;5009;50.656;7.188;2023-04-25T06:22:52;13.90;;;8.03;;
9940;SDS011;5009;50.656;7.188;2023-04-25T06:25:18;17.50;;;7.87;;
9940;SDS011;5009;50.656;7.188;2023-04-25T06:27:43;17.47;;;8.17;;
9940;SDS011;5009;50.656;7.188;2023-04-25T06:30:09;15.50;;;7.53;;
9940;SDS011;5009;50.656;7.188;2023-04-25T06:32:37;14.97;;;7.87;;
9940;SDS011;5009;50.656;7.188;2023-04-25T06:35:03;14.23;;;7.27;;
9940;SDS011;5009;50.656;7.188;2023-04-25T06:37:28;14.87;;;6.90;;
9940;SDS011;5009;50.656;7.188;2023-04-25T06:39:54;15.43;;;6.90;;
9940;SDS011;5009;50.656;7.188;2023-04-25T06:42:20;13.17;;;6.57;;
9940;SDS011;5009;50.656;7.188;2023-04-25T06:44:45;11.40;;;6.60;;
9940;SDS011;5009;50.656;7.188;2023-04-25T06:47:11;18.87;;;7.30;;
9940;SDS011;5009;50.656;7.188;2023-04-25T06:49:36;13.80;;;7.20;;
9940;SDS011;5009;50.656;7.188;2023-04-25T06:52:02;17.10;;;7.27;;
9940;SDS011;5009;50.656;7.188;2023-04-25T06:54:27;15.33;;;6.57;;
9940;SDS011;5009;50.656;7.188;2023-04-25T06:56:54;15.37;;;7.07;;
9940;SDS011;5009;50.656;7.188;2023-04-25T06:59:21;15.10;;;6.40;;
9940;SDS011;5009;50.656;7.188;2023-04-25T07:01:46;14.60;;;7.30;;
9940;SDS011;5009;50.656;7.188;2023-04-25T07:04:12;16.30;;;7.03;;
9940;SDS011;5009;50.656;7.188;2023-04-25T07:06:37;14.13;;;6.80;;
9940;SDS011;5009;50.656;7.188;2023-04-25T07:09:07;16.97;;;7.27;;
9940;SDS011;5009;50.656;7.188;2023-04-25T07:11:36;15.73;;;7.13;;
9940;SDS011;5009;50.656;7.188;2023-04-25T07:14:02;16.10;;;6.83;;
9940;SDS011;5009;50.656;7.188;2023-04-25T07:16:28;15.57;;;6.60;;
9940;SDS011;5009;50.656;7.188;2023-04-25T07:18:53;12.90;;;5.70;;
9940;SDS011;5009;50.656;7.188;2023-04-25T07:21:19;13.50;;;6.67;;
9940;SDS011;5009;50.656;7.188;2023-04-25T07:23:44;9.67;;;5.57;;
9940;SDS011;5009;50.656;7.188;2023-04-25T07:26:10;13.80;;;5.97;;
9940;SDS011;5009;50.656;7.188;2023-04-25T07:28:38;13.37;;;5.90;;
9940;SDS011;5009;50.656;7.188;2023-04-25T07:31:04;12.50;;;5.67;;
9940;SDS011;5009;50.656;7.188;2023-04-25T07:33:30;15.90;;;6.37;;
9940;SDS011;5009;50.656;7.188;2023-04-25T07:35:55;13.97;;;7.07;;
9940;SDS011;5009;50.656;7.188;2023-04-25T07:38:21;15.10;;;6.20;;
9940;SDS011;5009;50.656;7.188;2023-04-25T07:40:47;12.47;;;6.10;;
9940;SDS011;5009;50.656;7.188;2023-04-25T07:43:13;11.83;;;5.53;;
9940;SDS011;5009;50.656;7.188;2023-04-25T07:45:41;10.67;;;5.63;;
9940;SDS011;5009;50.656;7.188;2023-04-25T07:48:07;10.73;;;5.00;;
9940;SDS011;5009;50.656;7.188;2023-04-25T07:50:33;18.23;;;6.40;;
9940;SDS011;5009;50.656;7.188;2023-04-25T07:52:59;12.47;;;5.83;;
9940;SDS011;5009;50.656;7.188;2023-04-25T07:55:24;14.07;;;5.70;;
9940;SDS011;5009;50.656;7.188;2023-04-25T07:57:50;14.73;;;5.57;;
9940;SDS011;5009;50.656;7.188;2023-04-25T08:00:15;13.73;;;5.20;;
9940;SDS011;5009;50.656;7.188;2023-04-25T08:02:41;11.97;;;5.77;;
9940;SDS011;5009;50.656;7.188;2023-04-25T08:05:07;13.27;;;5.20;;
9940;SDS011;5009;50.656;7.188;2023-04-25T08:07:36;10.07;;;5.17;;
9940;SDS011;5009;50.656;7.188;2023-04-25T08:10:03;11.33;;;5.77;;
9940;SDS011;5009;50.656;7.188;2023-04-25T08:12:30;12.43;;;5.17;;
9940;SDS011;5009;50.656;7.188;2023-04-25T08:14:56;16.63;;;5.03;;
9940;SDS011;5009;50.656;7.188;2023-04-25T08:17:21;13.07;;;5.33;;
9940;SDS011;5009;50.656;7.188;2023-04-25T08:19:47;8.80;;;4.20;;
9940;SDS011;5009;50.656;7.188;2023-04-25T08:22:12;11.47;;;4.17;;
9940;SDS011;5009;50.656;7.188;2023-04-25T08:24:38;10.77;;;4.20;;
9940;SDS011;5009;50.656;7.188;2023-04-25T08:27:03;13.60;;;4.83;;
9940;SDS011;5009;50.656;7.188;2023-04-25T08:29:29;13.63;;;4.43;;
9940;SDS011;5009;50.656;7.188;2023-04-25T08:31:55;11.03;;;4.40;;
9940;SDS011;5009;50.656;7.188;2023-04-25T08:34:20;9.50;;;4.00;;
9940;SDS011;5009;50.656;7.188;2023-04-25T08:36:46;10.70;;;4.07;;
9940;SDS011;5009;50.656;7.188;2023-04-25T08:39:11;10.63;;;3.83;;
9940;SDS011;5009;50.656;7.188;2023-04-25T08:41:38;10.67;;;4.27;;
9940;SDS011;5009;50.656;7.188;2023-04-25T08:44:05;10.03;;;4.10;;
9940;SDS011;5009;50.656;7.188;2023-04-25T08:46:34;11.10;;;3.90;;
9940;SDS011;5009;50.656;7.188;2023-04-25T08:49:02;9.47;;;3.93;;
9940;SDS011;5009;50.656;7.188;2023-04-25T08:51:30;9.27;;;3.80;;
9940;SDS011;5009;50.656;7.188;2023-04-25T08:53:57;9.83;;;3.93;;
9940;SDS011;5009;50.656;7.188;2023-04-25T08:56:33;8.97;;;3.50;;
9940;SDS011;5009;50.656;7.188;2023-04-25T08:58:59;7.73;;;3.77;;
9940;SDS011;5009;50.656;7.188;2023-04-25T09:01:27;12.40;;;3.80;;
9940;SDS011;5009;50.656;7.188;2023-04-25T09:03:53;7.17;;;3.73;;
9940;SDS011;5009;50.656;7.188;2023-04-25T09:06:19;7.97;;;3.20;;
9940;SDS011;5009;50.656;7.188;2023-04-25T09:08:45;11.70;;;3.80;;
9940;SDS011;5009;50.656;7.188;2023-04-25T09:11:10;9.53;;;3.30;;
9940;SDS011;5009;50.656;7.188;2023-04-25T09:13:38;10.37;;;3.90;;
9940;SDS011;5009;50.656;7.188;2023-04-25T09:16:03;16.60;;;4.23;;
9940;SDS011;5009;50.656;7.188;2023-04-25T09:18:33;8.37;;;4.03;;
9940;SDS011;5009;50.656;7.188;2023-04-25T09:21:06;8.27;;;4.43;;
9940;SDS011;5009;50.656;7.188;2023-04-25T09:23:54;9.53;;;3.77;;
9940;SDS011;5009;50.656;7.188;2023-04-25T09:26:20;10.33;;;3.53;;
9940;SDS011;5009;50.656;7.188;2023-04-25T09:28:46;5.43;;;3.13;;
9940;SDS011;5009;50.656;7.188;2023-04-25T09:31:21;7.77;;;3.67;;
9940;SDS011;5009;50.656;7.188;2023-04-25T09:33:49;8.77;;;3.90;;
9940;SDS011;5009;50.656;7.188;2023-04-25T09:36:14;12.03;;;3.10;;
9940;SDS011;5009;50.656;7.188;2023-04-25T09:38:41;9.13;;;3.40;;
9940;SDS011;5009;50.656;7.188;2023-04-25T09:41:07;3.80;;;2.30;;
9940;SDS011;5009;50.656;7.188;2023-04-25T09:43:34;5.63;;;2.63;;
9940;SDS011;5009;50.656;7.188;2023-04-25T09:46:00;6.37;;;3.20;;
9940;SDS011;5009;50.656;7.188;2023-04-25T09:48:26;6.23;;;3.33;;
9940;SDS011;5009;50.656;7.188;2023-04-25T09:53:38;9.23;;;3.07;;
9940;SDS011;5009;50.656;7.188;2023-04-25T09:56:06;4.60;;;3.10;;
9940;SDS011;5009;50.656;7.188;2023-04-25T09:58:34;8.60;;;3.30;;
9940;SDS011;5009;50.656;7.188;2023-04-25T10:01:01;4.30;;;2.80;;
9940;SDS011;5009;50.656;7.188;2023-04-25T10:03:46;5.80;;;2.80;;
9940;SDS011;5009;50.656;7.188;2023-04-25T10:06:18;9.33;;;3.53;;
9940;SDS011;5009;50.656;7.188;2023-04-25T10:08:44;8.43;;;3.50;;
9940;SDS011;5009;50.656;7.188;2023-04-25T10:11:14;4.97;;;3.27;;
9940;SDS011;5009;50.656;7.188;2023-04-25T10:13:41;7.60;;;3.80;;
9940;SDS011;5009;50.656;7.188;2023-04-25T10:16:07;9.17;;;3.03;;
9940;SDS011;5009;50.656;7.188;2023-04-25T10:18:33;9.80;;;3.77;;
9940;SDS011;5009;50.656;7.188;2023-04-25T10:21:02;7.20;;;3.40;;
9940;SDS011;5009;50.656;7.188;2023-04-25T10:23:29;6.40;;;3.40;;
9940;SDS011;5009;50.656;7.188;2023-04-25T10:25:56;5.83;;;2.93;;
9940;SDS011;5009;50.656;7.188;2023-04-25T10:28:22;9.37;;;3.60;;
9940;SDS011;5009;50.656;7.188;2023-04-25T10:31:00;10.17;;;3.83;;
9940;SDS011;5009;50.656;7.188;2023-04-25T10:33:35;7.13;;;3.30;;
9940;SDS011;5009;50.656;7.188;2023-04-25T10:36:11;7.73;;;3.77;;
9940;SDS011;5009;50.656;7.188;2023-04-25T10:38:45;9.00;;;2.87;;
9940;SDS011;5009;50.656;7.188;2023-04-25T10:41:13;7.43;;;3.47;;
9940;SDS011;5009;50.656;7.188;2023-04-25T10:43:46;5.10;;;3.03;;
9940;SDS011;5009;50.656;7.188;2023-04-25T10:53:45;5.20;;;3.37;;
9940;SDS011;5009;50.656;7.188;2023-04-25T10:56:31;7.70;;;2.93;;
9940;SDS011;5009;50.656;7.188;2023-04-25T10:59:02;4.67;;;2.53;;
9940;SDS011;5009;50.656;7.188;2023-04-25T11:01:41;8.63;;;3.20;;
9940;SDS011;5009;50.656;7.188;2023-04-25T11:04:24;6.63;;;2.90;;
9940;SDS011;5009;50.656;7.188;2023-04-25T11:07:05;7.33;;;3.40;;
9940;SDS011;5009;50.656;7.188;2023-04-25T11:09:39;9.93;;;3.63;;
9940;SDS011;5009;50.656;7.188;2023-04-25T11:12:07;10.23;;;3.47;;
9940;SDS011;5009;50.656;7.188;2023-04-25T11:14:33;6.50;;;3.03;;
9940;SDS011;5009;50.656;7.188;2023-04-25T11:16:59;7.80;;;3.60;;
9940;SDS011;5009;50.656;7.188;2023-04-25T11:19:27;7.57;;;3.10;;
9940;SDS011;5009;50.656;7.188;2023-04-25T11:21:57;6.37;;;3.23;;
9940;SDS011;5009;50.656;7.188;2023-04-25T11:24:28;5.03;;;3.40;;
9940;SDS011;5009;50.656;7.188;2023-04-25T11:26:59;6.73;;;3.23;;
9940;SDS011;5009;50.656;7.188;2023-04-25T11:29:27;6.17;;;3.63;;
9940;SDS011;5009;50.656;7.188;2023-04-25T11:31:54;9.83;;;3.93;;
9940;SDS011;5009;50.656;7.188;2023-04-25T11:34:22;8.10;;;4.17;;
9940;SDS011;5009;50.656;7.188;2023-04-25T11:36:50;8.13;;;3.80;;
9940;SDS011;5009;50.656;7.188;2023-04-25T11:39:17;6.27;;;3.40;;
9940;SDS011;5009;50.656;7.188;2023-04-25T11:41:43;8.23;;;3.77;;
9940;SDS011;5009;50.656;7.188;2023-04-25T11:44:09;8.20;;;4.10;;
9940;SDS011;5009;50.656;7.188;2023-04-25T11:46:35;6.33;;;3.53;;
9940;SDS011;5009;50.656;7.188;2023-04-25T11:49:00;9.87;;;3.63;;
9940;SDS011;5009;50.656;7.188;2023-04-25T11:51:27;7.27;;;3.53;;
9940;SDS011;5009;50.656;7.188;2023-04-25T11:53:52;8.07;;;3.50;;
9940;SDS011;5009;50.656;7.188;2023-04-25T11:56:18;9.90;;;3.60;;
9940;SDS011;5009;50.656;7.188;2023-04-25T11:59:01;10.90;;;3.63;;
9940;SDS011;5009;50.656;7.188;2023-04-25T12:01:31;7.53;;;3.80;;
9940;SDS011;5009;50.656;7.188;2023-04-25T12:03:58;12.20;;;4.17;;
9940;SDS011;5009;50.656;7.188;2023-04-25T12:06:39;7.87;;;3.57;;
9940;SDS011;5009;50.656;7.188;2023-04-25T12:09:07;5.00;;;3.33;;
9940;SDS011;5009;50.656;7.188;2023-04-25T12:11:43;8.83;;;3.77;;
9940;SDS011;5009;50.656;7.188;2023-04-25T12:14:09;10.57;;;4.10;;
9940;SDS011;5009;50.656;7.188;2023-04-25T12:16:45;8.97;;;3.90;;
9940;SDS011;5009;50.656;7.188;2023-04-25T12:19:18;5.83;;;3.50;;
9940;SDS011;5009;50.656;7.188;2023-04-25T12:21:44;12.70;;;3.83;;
9940;SDS011;5009;50.656;7.188;2023-04-25T12:24:17;6.97;;;3.30;;
9940;SDS011;5009;50.656;7.188;2023-04-25T12:29:26;8.10;;;3.37;;
9940;SDS011;5009;50.656;7.188;2023-04-25T12:31:53;7.93;;;3.20;;
9940;SDS011;5009;50.656;7.188;2023-04-25T12:34:20;6.97;;;3.10;;
9940;SDS011;5009;50.656;7.188;2023-04-25T12:36:46;8.57;;;2.80;;
9940;SDS011;5009;50.656;7.188;2023-04-25T12:39:19;6.67;;;3.10;;
9940;SDS011;5009;50.656;7.188;2023-04-25T12:41:46;6.27;;;2.83;;
9940;SDS011;5009;50.656;7.188;2023-04-25T12:44:12;5.43;;;2.93;;
9940;SDS011;5009;50.656;7.188;2023-04-25T12:46:38;5.80;;;3.13;;
9940;SDS011;5009;50.656;7.188;2023-04-25T12:49:05;6.57;;;2.80;;
9940;SDS011;5009;50.656;7.188;2023-04-25T12:51:33;5.07;;;2.57;;
9940;SDS011;5009;50.656;7.188;2023-04-25T12:53:59;6.20;;;2.77;;
9940;SDS011;5009;50.656;7.188;2023-04-25T12:56:25;5.57;;;2.43;;
9940;SDS011;5009;50.656;7.188;2023-04-25T12:58:52;5.13;;;2.50;;
9940;SDS011;5009;50.656;7.188;2023-04-25T13:01:18;6.00;;;2.60;;
9940;SDS011;5009;50.656;7.188;2023-04-25T13:03:44;7.20;;;2.83;;
9940;SDS011;5009;50.656;7.188;2023-04-25T13:06:10;3.13;;;2.47;;
9940;SDS011;5009;50.656;7.188;2023-04-25T13:08:36;6.33;;;3.07;;
9940;SDS011;5009;50.656;7.188;2023-04-25T13:11:03;6.00;;;3.00;;
9940;SDS011;5009;50.656;7.188;2023-04-25T13:13:29;4.90;;;2.93;;
9940;SDS011;5009;50.656;7.188;2023-04-25T13:15:56;6.83;;;3.20;;
9940;SDS011;5009;50.656;7.188;2023-04-25T13:18:22;4.27;;;2.53;;
9940;SDS011;5009;50.656;7.188;2023-04-25T13:20:51;5.17;;;2.67;;
9940;SDS011;5009;50.656;7.188;2023-04-25T13:23:17;8.30;;;3.03;;
9940;SDS011;5009;50.656;7.188;2023-04-25T13:25:42;3.47;;;2.40;;
9940;SDS011;5009;50.656;7.188;2023-04-25T13:28:08;7.63;;;3.40;;
9940;SDS011;5009;50.656;7.188;2023-04-25T13:30:34;5.37;;;2.90;;
9940;SDS011;5009;50.656;7.188;2023-04-25T13:32:59;6.60;;;3.57;;
9940;SDS011;5009;50.656;7.188;2023-04-25T13:35:28;4.90;;;2.73;;
9940;SDS011;5009;50.656;7.188;2023-04-25T13:37:54;6.77;;;3.20;;
9940;SDS011;5009;50.656;7.188;2023-04-25T13:40:20;6.03;;;2.90;;
9940;SDS011;5009;50.656;7.188;2023-04-25T13:42:45;6.67;;;3.10;;
9940;SDS011;5009;50.656;7.188;2023-04-25T13:45:11;7.57;;;2.77;;
9940;SDS011;5009;50.656;7.188;2023-04-25T13:47:37;5.30;;;2.83;;
9940;SDS011;5009;50.656;7.188;2023-04-25T13:50:03;4.97;;;2.80;;
9940;SDS011;5009;50.656;7.188;2023-04-25T13:52:30;4.67;;;2.90;;
9940;SDS011;5009;50.656;7.188;2023-04-25T13:54:56;6.87;;;3.07;;
9940;SDS011;5009;50.656;7.188;2023-04-25T13:57:22;5.20;;;2.73;;
9940;SDS011;5009;50.656;7.188;2023-04-25T13:59:48;5.33;;;3.37;;
9940;SDS011;5009;50.656;7.188;2023-04-25T14:02:13;8.33;;;2.93;;
9940;SDS011;5009;50.656;7.188;2023-04-25T14:04:40;4.37;;;2.87;;
9940;SDS011;5009;50.656;7.188;2023-04-25T14:07:05;4.70;;;2.60;;
9940;SDS011;5009;50.656;7.188;2023-04-25T14:09:31;4.87;;;2.13;;
9940;SDS011;5009;50.656;7.188;2023-04-25T14:11:57;7.00;;;2.47;;
9940;SDS011;5009;50.656;7.188;2023-04-25T14:14:23;6.63;;;2.70;;
9940;SDS011;5009;50.656;7.188;2023-04-25T14:16:49;5.77;;;2.60;;
9940;SDS011;5009;50.656;7.188;2023-04-25T14:19:15;3.50;;;2.37;;
9940;SDS011;5009;50.656;7.188;2023-04-25T14:21:41;7.27;;;2.33;;
9940;SDS011;5009;50.656;7.188;2023-04-25T14:24:08;4.37;;;2.47;;
9940;SDS011;5009;50.656;7.188;2023-04-25T14:26:34;4.13;;;2.73;;
9940;SDS011;5009;50.656;7.188;2023-04-25T14:29:03;4.97;;;2.63;;
9940;SDS011;5009;50.656;7.188;2023-04-25T14:31:33;4.80;;;2.60;;
9940;SDS011;5009;50.656;7.188;2023-04-25T14:33:59;3.70;;;2.50;;
9940;SDS011;5009;50.656;7.188;2023-04-25T14:36:25;3.97;;;2.70;;
9940;SDS011;5009;50.656;7.188;2023-04-25T14:38:53;5.73;;;2.80;;
9940;SDS011;5009;50.656;7.188;2023-04-25T14:41:18;5.40;;;2.50;;
9940;SDS011;5009;50.656;7.188;2023-04-25T14:43:44;5.63;;;2.87;;
9940;SDS011;5009;50.656;7.188;2023-04-25T14:46:10;4.13;;;2.70;;
9940;SDS011;5009;50.656;7.188;2023-04-25T14:48:36;3.43;;;2.83;;
9940;SDS011;5009;50.656;7.188;2023-04-25T14:51:02;5.60;;;3.03;;
9940;SDS011;5009;50.656;7.188;2023-04-25T14:53:27;5.20;;;2.77;;
9940;SDS011;5009;50.656;7.188;2023-04-25T14:55:53;4.57;;;2.80;;
9940;SDS011;5009;50.656;7.188;2023-04-25T14:58:19;5.87;;;2.93;;
9940;SDS011;5009;50.656;7.188;2023-04-25T15:00:45;6.03;;;3.10;;
9940;SDS011;5009;50.656;7.188;2023-04-25T15:03:11;5.13;;;2.83;;
9940;SDS011;5009;50.656;7.188;2023-04-25T15:05:38;6.37;;;2.80;;
9940;SDS011;5009;50.656;7.188;2023-04-25T15:08:04;3.77;;;2.50;;
9940;SDS011;5009;50.656;7.188;2023-04-25T15:10:29;4.00;;;2.63;;
9940;SDS011;5009;50.656;7.188;2023-04-25T15:12:55;7.37;;;2.90;;
9940;SDS011;5009;50.656;7.188;2023-04-25T15:15:21;3.70;;;2.20;;
9940;SDS011;5009;50.656;7.188;2023-04-25T15:17:48;6.60;;;2.43;;
9940;SDS011;5009;50.656;7.188;2023-04-25T15:20:15;5.43;;;2.87;;
9940;SDS011;5009;50.656;7.188;2023-04-25T15:22:41;5.87;;;2.90;;
9940;SDS011;5009;50.656;7.188;2023-04-25T15:25:09;5.57;;;2.93;;
9940;SDS011;5009;50.656;7.188;2023-04-25T15:27:35;5.27;;;2.43;;
9940;SDS011;5009;50.656;7.188;2023-04-25T15:30:08;4.70;;;2.50;;
9940;SDS011;5009;50.656;7.188;2023-04-25T15:32:36;4.90;;;2.63;;
9940;SDS011;5009;50.656;7.188;2023-04-25T15:35:02;2.83;;;2.20;;
9940;SDS011;5009;50.656;7.188;2023-04-25T15:37:30;2.83;;;2.07;;
9940;SDS011;5009;50.656;7.188;2023-04-25T15:40:05;4.17;;;2.50;;
9940;SDS011;5009;50.656;7.188;2023-04-25T15:42:35;7.57;;;2.47;;
9940;SDS011;5009;50.656;7.188;2023-04-25T15:45:05;3.83;;;2.50;;
9940;SDS011;5009;50.656;7.188;2023-04-25T15:47:31;3.30;;;2.17;;
9940;SDS011;5009;50.656;7.188;2023-04-25T15:49:59;5.13;;;2.03;;
9940;SDS011;5009;50.656;7.188;2023-04-25T15:52:25;5.30;;;2.10;;
9940;SDS011;5009;50.656;7.188;2023-04-25T15:54:51;3.67;;;2.17;;
9940;SDS011;5009;50.656;7.188;2023-04-25T15:57:17;4.10;;;2.03;;
9940;SDS011;5009;50.656;7.188;2023-04-25T15:59:43;2.27;;;1.73;;
9940;SDS011;5009;50.656;7.188;2023-04-25T16:02:08;3.10;;;2.00;;
9940;SDS011;5009;50.656;7.188;2023-04-25T16:04:34;3.53;;;2.03;;
9940;SDS011;5009;50.656;7.188;2023-04-25T16:07:00;2.97;;;1.67;;
9940;SDS011;5009;50.656;7.188;2023-04-25T16:09:27;3.07;;;1.80;;
9940;SDS011;5009;50.656;7.188;2023-04-25T16:11:53;3.77;;;1.90;;
9940;SDS011;5009;50.656;7.188;2023-04-25T16:14:19;3.30;;;1.87;;
9940;SDS011;5009;50.656;7.188;2023-04-25T16:16:44;5.23;;;1.80;;
9940;SDS011;5009;50.656;7.188;2023-04-25T16:19:10;2.37;;;1.87;;
9940;SDS011;5009;50.656;7.188;2023-04-25T16:21:36;3.93;;;2.17;;
9940;SDS011;5009;50.656;7.188;2023-04-25T16:24:02;2.00;;;1.70;;
9940;SDS011;5009;50.656;7.188;2023-04-25T16:26:27;2.83;;;2.00;;
9940;SDS011;5009;50.656;7.188;2023-04-25T16:28:53;5.57;;;2.67;;
9940;SDS011;5009;50.656;7.188;2023-04-25T16:31:19;3.57;;;1.97;;
9940;SDS011;5009;50.656;7.188;2023-04-25T16:33:44;5.37;;;2.73;;
9940;SDS011;5009;50.656;7.188;2023-04-25T16:36:10;3.60;;;2.50;;
9940;SDS011;5009;50.656;7.188;2023-04-25T16:38:37;4.10;;;2.30;;
9940;SDS011;5009;50.656;7.188;2023-04-25T16:41:03;3.97;;;2.10;;
9940;SDS011;5009;50.656;7.188;2023-04-25T16:43:29;3.77;;;2.20;;
9940;SDS011;5009;50.656;7.188;2023-04-25T16:45:55;5.33;;;2.20;;
9940;SDS011;5009;50.656;7.188;2023-04-25T16:48:21;3.60;;;2.20;;
9940;SDS011;5009;50.656;7.188;2023-04-25T16:50:48;2.40;;;2.07;;
9940;SDS011;5009;50.656;7.188;2023-04-25T16:53:17;5.07;;;2.00;;
9940;SDS011;5009;50.656;7.188;2023-04-25T16:55:43;4.17;;;1.77;;
9940;SDS011;5009;50.656;7.188;2023-04-25T16:58:10;4.17;;;2.20;;
9940;SDS011;5009;50.656;7.188;2023-04-25T17:00:36;4.90;;;2.30;;
9940;SDS011;5009;50.656;7.188;2023-04-25T17:03:03;3.87;;;2.23;;
9940;SDS011;5009;50.656;7.188;2023-04-25T17:05:28;4.90;;;2.40;;
9940;SDS011;5009;50.656;7.188;2023-04-25T17:07:54;5.57;;;2.37;;
9940;SDS011;5009;50.656;7.188;2023-04-25T17:10:20;5.97;;;2.57;;
9940;SDS011;5009;50.656;7.188;2023-04-25T17:12:46;3.27;;;2.37;;
9940;SDS011;5009;50.656;7.188;2023-04-25T17:15:12;3.70;;;2.27;;
9940;SDS011;5009;50.656;7.188;2023-04-25T17:17:38;4.17;;;2.47;;
9940;SDS011;5009;50.656;7.188;2023-04-25T17:20:04;4.67;;;2.53;;
9940;SDS011;5009;50.656;7.188;2023-04-25T17:22:35;3.03;;;2.20;;
9940;SDS011;5009;50.656;7.188;2023-04-25T17:25:04;2.43;;;2.23;;
9940;SDS011;5009;50.656;7.188;2023-04-25T17:27:31;4.53;;;2.33;;
9940;SDS011;5009;50.656;7.188;2023-04-25T17:29:57;3.63;;;2.33;;
9940;SDS011;5009;50.656;7.188;2023-04-25T17:32:23;4.07;;;2.10;;
9940;SDS011;5009;50.656;7.188;2023-04-25T17:34:48;2.73;;;2.17;;
9940;SDS011;5009;50.656;7.188;2023-04-25T17:37:14;4.17;;;2.40;;
9940;SDS011;5009;50.656;7.188;2023-04-25T17:39:43;3.70;;;2.27;;
9940;SDS011;5009;50.656;7.188;2023-04-25T17:42:09;2.20;;;2.00;;
9940;SDS011;5009;50.656;7.188;2023-04-25T17:44:36;2.33;;;1.67;;
9940;SDS011;5009;50.656;7.188;2023-04-25T17:47:03;3.00;;;2.27;;
9940;SDS011;5009;50.656;7.188;2023-04-25T17:49:31;4.77;;;2.27;;
9940;SDS011;5009;50.656;7.188;2023-04-25T17:51:57;5.93;;;2.30;;
9940;SDS011;5009;50.656;7.188;2023-04-25T17:54:22;3.27;;;2.33;;
9940;SDS011;5009;50.656;7.188;2023-04-25T17:56:48;4.07;;;2.10;;
9940;SDS011;5009;50.656;7.188;2023-04-25T17:59:14;4.43;;;2.10;;
9940;SDS011;5009;50.656;7.188;2023-04-25T18:01:41;3.10;;;2.10;;
9940;SDS011;5009;50.656;7.188;2023-04-25T18:04:06;3.33;;;2.27;;
9940;SDS011;5009;50.656;7.188;2023-04-25T18:06:32;2.87;;;2.03;;
9940;SDS011;5009;50.656;7.188;2023-04-25T18:08:58;4.63;;;2.40;;
9940;SDS011;5009;50.656;7.188;2023-04-25T18:11:26;3.53;;;2.50;;
9940;SDS011;5009;50.656;7.188;2023-04-25T18:13:53;6.47;;;3.00;;
9940;SDS011;5009;50.656;7.188;2023-04-25T18:16:19;6.23;;;2.73;;
9940;SDS011;5009;50.656;7.188;2023-04-25T18:18:45;4.47;;;2.37;;
9940;SDS011;5009;50.656;7.188;2023-04-25T18:21:16;2.93;;;2.63;;
9940;SDS011;5009;50.656;7.188;2023-04-25T18:23:45;3.93;;;2.50;;
9940;SDS011;5009;50.656;7.188;2023-04-25T18:26:10;4.63;;;2.37;;
9940;SDS011;5009;50.656;7.188;2023-04-25T18:28:36;4.50;;;2.67;;
9940;SDS011;5009;50.656;7.188;2023-04-25T18:31:02;4.27;;;2.57;;
9940;SDS011;5009;50.656;7.188;2023-04-25T18:33:28;5.20;;;2.50;;
9940;SDS011;5009;50.656;7.188;2023-04-25T18:35:53;6.47;;;2.60;;
9940;SDS011;5009;50.656;7.188;2023-04-25T18:38:20;4.10;;;2.10;;
9940;SDS011;5009;50.656;7.188;2023-04-25T18:40:45;6.63;;;2.73;;
9940;SDS011;5009;50.656;7.188;2023-04-25T18:43:12;5.27;;;2.73;;
9940;SDS011;5009;50.656;7.188;2023-04-25T18:45:38;4.23;;;2.13;;
9940;SDS011;5009;50.656;7.188;2023-04-25T18:48:04;4.27;;;2.53;;
9940;SDS011;5009;50.656;7.188;2023-04-25T18:50:29;5.67;;;2.63;;
9940;SDS011;5009;50.656;7.188;2023-04-25T18:52:57;5.50;;;2.97;;
9940;SDS011;5009;50.656;7.188;2023-04-25T18:55:23;7.60;;;3.03;;
9940;SDS011;5009;50.656;7.188;2023-04-25T18:57:49;3.73;;;2.50;;
9940;SDS011;5009;50.656;7.188;2023-04-25T19:00:15;7.20;;;2.77;;
9940;SDS011;5009;50.656;7.188;2023-04-25T19:02:41;4.70;;;2.67;;
9940;SDS011;5009;50.656;7.188;2023-04-25T19:05:06;5.13;;;2.50;;
9940;SDS011;5009;50.656;7.188;2023-04-25T19:07:34;4.90;;;2.23;;
9940;SDS011;5009;50.656;7.188;2023-04-25T19:09:59;4.00;;;2.27;;
9940;SDS011;5009;50.656;7.188;2023-04-25T19:12:28;3.37;;;2.10;;
9940;SDS011;5009;50.656;7.188;2023-04-25T19:14:53;4.03;;;2.27;;
9940;SDS011;5009;50.656;7.188;2023-04-25T19:17:20;4.10;;;2.50;;
9940;SDS011;5009;50.656;7.188;2023-04-25T19:19:46;5.10;;;2.33;;
9940;SDS011;5009;50.656;7.188;2023-04-25T19:22:11;2.97;;;2.27;;